Terminal Aerodrome Forecast
Issued by NWS

Home | Current Version | Previous Version | Text Only | Print | Product List | Glossary On
Versions: 1 2 3 4 5 6 7 8 9 10 11 12 13 14 15 16 17 18 19 20 21 22 23 24 25 26 27 28 29 30 31 32 33 34 35 36 37
000
FTUS43 KGRB 020100 AAA
TAFRHI
TAF AMD
KRHI 020119Z 0201/0224 14006KT 6SM BR SCT015 OVC026
      TEMPO 0201/0203 5SM -SHRA BR BKN015
     FM020300 13004KT 3SM -SHRA BR SCT007 OVC015
     FM020600 14003KT 2SM -DZ BR OVC004
      TEMPO 0210/0214 1/2SM FG OVC002
     FM021400 VRB02KT 5SM BR SCT002 BKN010
     FM021800 14004KT 6SM BR SCT012 BKN025=

USA.gov is the U.S. government's official web portal to all federal, state and local government web resources and services.